Flight Track Log - Related Links

Times and Time Zones

All times are in EDT time to prevent confusion due to time zone crossing. See the SKW4544 flight status page for this flight to view local times or setup timezone preferences in your user account.

Time Position Orientation Groundspeed Altitude Reporting Facility
EDT Latitude Longitude Course Direction KTS MPH feet Rate Location/Type
Tue 08:30:00 AM 45.6322 -108.7846 215° Southwest  Level FlightAware Approximate
Tue 08:31:00 AM 45.5604 -108.8564 215° Southwest  Level FlightAware Approximate
Tue 08:32:00 AM 45.4886 -108.9281 215° Southwest  Level FlightAware Approximate
Tue 08:33:00 AM 45.4169 -108.9998 215° Southwest  Level FlightAware Approximate
Tue 08:34:00 AM 45.3452 -109.0715 215° Southwest  Level FlightAware Approximate
Tue 08:35:00 AM 45.2735 -109.1431 215° Southwest  Level FlightAware Approximate
Tue 08:36:00 AM 45.2010 -109.2128 213° Southwest  Level FlightAware Approximate
Tue 08:37:00 AM 45.1272 -109.2799 213° Southwest  Level FlightAware Approximate
Tue 08:38:00 AM 45.0535 -109.3469 213° Southwest  Level FlightAware Approximate
Tue 08:39:00 AM 44.9818 -109.4182 215° Southwest  Level FlightAware Approximate
Tue 08:40:00 AM 44.9103 -109.4897 215° Southwest  Level FlightAware Approximate
Tue 08:41:00 AM 44.8388 -109.5612 215° Southwest  Level FlightAware Approximate
Tue 08:42:00 AM 44.7675 -109.6328 215° Southwest  Level FlightAware Approximate
Tue 08:43:00 AM 44.6961 -109.7043 215° Southwest  Level FlightAware Approximate
Tue 08:44:00 AM 44.6246 -109.7756 215° Southwest  Level FlightAware Approximate
Tue 08:45:00 AM 44.5525 -109.8453 213° Southwest  Level FlightAware Approximate
Tue 08:46:00 AM 44.4793 -109.9129 213° Southwest  Level FlightAware Approximate
Tue 08:47:00 AM 44.4061 -109.9804 213° Southwest  Level FlightAware Approximate
Tue 08:48:00 AM 44.3338 -110.0495 216° Southwest  Level FlightAware Approximate
Tue 08:49:00 AM 44.2625 -110.1206 214° Southwest  Level FlightAware Approximate
Tue 08:50:00 AM 44.1897 -110.1886 214° Southwest  Level FlightAware Approximate
Tue 08:51:00 AM 44.1168 -110.2564 214° Southwest  Level FlightAware Approximate
Tue 08:52:00 AM 44.0439 -110.3241 214° Southwest  Level FlightAware Approximate
Tue 08:53:00 AM 43.9710 -110.3916 214° Southwest  Level FlightAware Approximate
Tue 08:54:00 AM 43.8980 -110.4589 214° Southwest  Level FlightAware Approximate
Tue 08:55:00 AM 43.8250 -110.5261 214° Southwest  Level FlightAware Approximate
Tue 08:56:00 AM 43.7520 -110.5931 214° Southwest  Level FlightAware Approximate
Tue 08:57:00 AM 43.6789 -110.6599 213° Southwest  Level FlightAware Approximate
Tue 08:58:00 AM 43.6071 -110.7289 223° Southwest  Level FlightAware Approximate
Tue 08:59:00 AM 43.5426 -110.8108 223° Southwest  Level FlightAware Approximate
Tue 09:00:00 AM 43.4782 -110.8926 223° Southwest  Level FlightAware Approximate
Tue 09:01:00 AM 43.4136 -110.9742 223° Southwest  Level FlightAware Approximate
Tue 09:02:00 AM 43.3487 -111.0551 221° Southwest  Level FlightAware Approximate
Tue 09:03:00 AM 43.2830 -111.1347 221° Southwest  Level FlightAware Approximate
Tue 09:04:00 AM 43.2172 -111.2141 221° Southwest  Level FlightAware Approximate
Tue 09:05:00 AM 43.1513 -111.2934 221° Southwest  Level FlightAware Approximate
Tue 09:06:00 AM 43.0854 -111.3725 221° Southwest  Level FlightAware Approximate
Tue 09:07:00 AM 43.0195 -111.4514 221° Southwest  Level FlightAware Approximate
Tue 09:08:00 AM 42.9535 -111.5302 221° Southwest  Level FlightAware Approximate
Tue 09:09:00 AM 42.8874 -111.6087 221° Southwest  Level FlightAware Approximate
Tue 09:10:00 AM 42.8213 -111.6871 221° Southwest  Level FlightAware Approximate
Tue 09:11:00 AM 42.7551 -111.7654 221° Southwest  Level FlightAware Approximate
Tue 09:12:00 AM 42.6889 -111.8435 221° Southwest  Level FlightAware Approximate
Tue 09:13:00 AM 42.6035 -111.8614 186° South  Level FlightAware Approximate
Tue 09:14:00 AM 42.5166 -111.8761 188° South  Level FlightAware Approximate
Tue 09:15:00 AM 42.4298 -111.8924 188° South  Level FlightAware Approximate
Tue 09:16:00 AM 42.3430 -111.9086 188° South  Level FlightAware Approximate
Tue 09:17:00 AM 42.2560 -111.9201 185° South  Level FlightAware Approximate
Tue 09:18:00 AM 42.1687 -111.9310 185° South  Level FlightAware Approximate
Tue 09:19:00 AM 42.0820 -111.9479 189° South  Level FlightAware Approximate
Tue 09:20:00 AM 41.9955 -111.9665 189° South  Level FlightAware Approximate
Tue 09:21:00 AM 41.9089 -111.9843 185° South  Level FlightAware Approximate
Tue 09:22:00 AM 41.8217 -111.9952 185° South  Level FlightAware Approximate
Tue 09:23:00 AM 41.7345 -112.0070 186° South  Level FlightAware Approximate
Tue 09:24:00 AM 41.6474 -112.0194 186° South  Level FlightAware Approximate
Tue 09:25:00 AM 41.5603 -112.0319 186° South  Level FlightAware Approximate
Tue 09:26:00 AM 41.4750 -112.0500 180° South  Level FlightAware Approximate
Tue 09:27:00 AM 41.3886 -112.0333 180° South  Level FlightAware Approximate
Tue 09:28:00 AM 41.3012 -112.0295 169° South  Level FlightAware Approximate
Tue 09:29:00 AM 41.2146 -112.0131 176° South  Level FlightAware Approximate
Tue 09:30:00 AM 41.1273 -112.0044 176° South  Level FlightAware Approximate
Tue 09:31:00 AM 41.0398 -112.0000 180° South  Level FlightAware Approximate
Tue 09:32:00 AM 40.9524 -111.9919 176° South  Level FlightAware Approximate
Tue 09:33:00 AM 40.8651 -111.9828 166° South  Level FlightAware Approximate
Tue 09:34:00 AM 40.7833 -111.9667 180° South  Level FlightAware Approximate

Login

Don't have an account? Register now (free) for customized features, flight alerts, and more!